Time;durP1;ratioP1;P1;durP2;ratioP2;P2;SDS_P1;SDS_P2;PMS_P1;PMS_P2;Temp;Humidity;BMP_temperature;BMP_pressure;BME280_temperature;BME280_humidity;BME280_pressure;Samples;Min_cycle;Max_cycle;Signal;HPM_P1;HPM_P2
2022/07/02 00:00:10;;;;;;;5.10;4.47;;;;;;;10.57;100.00;97077.53;5020601;28;20467;-73
2022/07/02 00:02:42;;;;;;;4.30;3.90;;;;;;;10.51;100.00;97102.53;5037460;28;20469;-73
2022/07/02 00:05:12;;;;;;;4.53;3.97;;;;;;;10.23;100.00;97048.31;5036899;28;20657;-73
2022/07/02 00:07:39;;;;;;;3.73;3.43;;;;;;;10.34;100.00;97060.19;5036927;28;20461;-72
2022/07/02 00:10:06;;;;;;;4.57;4.20;;;;;;;10.82;100.00;97101.72;5054742;28;20520;-73
2022/07/02 00:12:33;;;;;;;5.00;4.50;;;;;;;10.35;100.00;97080.25;5054702;28;20425;-73
2022/07/02 00:15:00;;;;;;;4.97;4.57;;;;;;;10.66;100.00;97102.09;5053369;28;20508;-72
2022/07/02 00:17:27;;;;;;;3.33;3.13;;;;;;;10.58;100.00;97097.59;5036958;28;20879;-72
2022/07/02 00:19:54;;;;;;;4.60;3.90;;;;;;;10.70;100.00;97101.53;5036614;28;20437;-72
2022/07/02 00:22:21;;;;;;;10.03;7.80;;;;;;;10.69;100.00;97092.03;5036500;28;20493;-72
2022/07/02 00:24:47;;;;;;;5.77;5.27;;;;;;;10.47;100.00;97100.81;5036397;28;20483;-72
2022/07/02 00:27:18;;;;;;;5.90;3.93;;;;;;;10.25;100.00;97104.28;5036305;28;20487;-72
2022/07/02 00:29:57;;;;;;;6.27;3.70;;;;;;;10.06;100.00;97083.34;5036519;28;20440;-72
2022/07/02 00:32:33;;;;;;;5.13;4.40;;;;;;;10.36;100.00;97110.88;5036407;28;20429;-72
2022/07/02 00:35:09;;;;;;;4.27;3.83;;;;;;;10.32;100.00;97109.94;5036101;28;20541;-72
2022/07/02 00:37:37;;;;;;;5.13;3.57;;;;;;;10.28;100.00;97103.69;5035853;28;20453;-72
2022/07/02 00:40:08;;;;;;;5.30;4.30;;;;;;;10.01;100.00;97094.81;5023262;28;20851;-72
2022/07/02 00:42:36;;;;;;;4.07;3.50;;;;;;;10.23;100.00;97112.53;5054004;28;20453;-72
2022/07/02 00:45:04;;;;;;;3.93;3.57;;;;;;;9.94;100.00;97056.72;5036035;28;20434;-72
2022/07/02 00:47:33;;;;;;;3.40;3.17;;;;;;;10.49;100.00;97109.22;5035985;28;20477;-72
2022/07/02 00:50:04;;;;;;;3.70;3.40;;;;;;;10.48;100.00;97103.16;5053975;28;20943;-72
2022/07/02 00:52:31;;;;;;;4.60;3.63;;;;;;;10.38;100.00;97089.41;5036164;28;20835;-72
2022/07/02 00:54:57;;;;;;;3.47;3.20;;;;;;;10.40;100.00;97108.41;5035967;28;20495;-72
2022/07/02 00:57:24;;;;;;;3.63;2.97;;;;;;;10.25;100.00;97068.06;5035002;28;20458;-72
2022/07/02 00:59:51;;;;;;;4.90;3.33;;;;;;;10.51;100.00;97107.03;5035785;28;21282;-72
2022/07/02 01:02:22;;;;;;;3.97;3.53;;;;;;;10.33;100.00;97085.84;5035905;28;20422;-72
2022/07/02 01:04:50;;;;;;;9.77;3.67;;;;;;;10.43;100.00;97097.22;5034762;28;20537;-72
2022/07/02 01:07:20;;;;;;;3.87;3.57;;;;;;;10.19;100.00;97077.19;5052034;28;20469;-72
2022/07/02 01:12:35;;;;;;;5.50;3.80;;;;;;;10.34;100.00;97095.31;5053566;28;20491;-72
2022/07/02 01:15:02;;;;;;;3.03;2.83;;;;;;;10.18;100.00;97098.66;5035720;28;20429;-72
2022/07/02 01:17:29;;;;;;;4.10;2.97;;;;;;;10.03;100.00;97046.97;5053362;28;20978;-72
2022/07/02 01:19:56;;;;;;;3.30;3.00;;;;;;;10.14;100.00;97068.63;5035360;28;20436;-72
2022/07/02 01:22:24;;;;;;;5.60;3.17;;;;;;;10.29;100.00;97102.63;5053279;28;20432;-72
2022/07/02 01:24:53;;;;;;;4.37;3.30;;;;;;;10.02;100.00;97075.28;5035266;28;20438;-72
2022/07/02 01:27:22;;;;;;;4.50;3.30;;;;;;;9.89;100.00;97088.56;5035439;28;20508;-72
2022/07/02 01:29:50;;;;;;;4.90;3.07;;;;;;;10.19;100.00;97100.22;5051969;28;20480;-72
2022/07/02 01:32:18;;;;;;;3.53;3.23;;;;;;;10.14;100.00;97090.53;5035289;28;20552;-72
2022/07/02 01:34:47;;;;;;;2.60;2.40;;;;;;;10.18;100.00;97101.28;5035167;28;20961;-72
2022/07/02 01:37:16;;;;;;;3.70;3.30;;;;;;;9.94;100.00;97101.63;5035054;28;20968;-72
2022/07/02 01:39:45;;;;;;;3.93;3.23;;;;;;;9.91;100.00;97086.38;5018669;28;20839;-73
2022/07/02 01:42:12;;;;;;;3.13;2.93;;;;;;;10.16;100.00;97103.47;5034840;28;20496;-72
2022/07/02 01:44:40;;;;;;;2.53;2.10;;;;;;;10.19;100.00;97102.84;5034844;28;20548;-72
2022/07/02 01:47:10;;;;;;;3.20;2.90;;;;;;;10.10;100.00;97099.38;5034965;28;20453;-73
2022/07/02 01:49:37;;;;;;;3.97;2.60;;;;;;;9.98;100.00;97095.44;5034881;28;20438;-73
2022/07/02 01:52:05;;;;;;;6.90;2.47;;;;;;;9.97;100.00;97099.16;5034799;28;20438;-72
2022/07/02 01:54:32;;;;;;;3.87;2.07;;;;;;;9.84;100.00;97088.66;5017947;28;20468;-73
2022/07/02 01:57:00;;;;;;;4.00;2.70;;;;;;;9.85;100.00;97101.56;5034990;28;20836;-73
2022/07/02 01:59:27;;;;;;;2.90;2.30;;;;;;;9.79;100.00;97108.06;5052565;28;20461;-73
2022/07/02 02:01:54;;;;;;;2.77;2.57;;;;;;;9.48;100.00;97110.63;5034847;28;20425;-73
2022/07/02 02:04:21;;;;;;;2.10;2.00;;;;;;;9.45;100.00;97116.50;5052401;28;20866;-72
2022/07/02 02:06:48;;;;;;;3.07;2.40;;;;;;;9.34;100.00;97078.22;5034759;28;20465;-72
2022/07/02 02:09:15;;;;;;;3.90;2.13;;;;;;;9.53;100.00;97102.59;5034868;28;20429;-72
2022/07/02 02:11:43;;;;;;;2.77;2.20;;;;;;;9.37;100.00;97070.50;5034299;28;20487;-72
2022/07/02 02:14:10;;;;;;;2.60;2.40;;;;;;;9.65;100.00;97108.13;5051130;28;20529;-72
2022/07/02 02:16:37;;;;;;;2.40;2.07;;;;;;;9.69;100.00;97105.66;5017397;28;20473;-72
2022/07/02 02:19:05;;;;;;;8.90;2.30;;;;;;;9.74;100.00;97102.91;5034620;28;20755;-72
2022/07/02 02:21:32;;;;;;;3.03;2.20;;;;;;;9.59;100.00;97109.31;5034439;28;20483;-72
2022/07/02 02:23:59;;;;;;;3.03;2.20;;;;;;;9.47;100.00;97112.50;5052068;28;20485;-72
2022/07/02 02:26:26;;;;;;;2.93;1.83;;;;;;;9.34;100.00;97115.97;5034063;28;20466;-72
2022/07/02 02:28:53;;;;;;;2.97;2.77;;;;;;;9.23;100.00;97080.34;5050704;28;20460;-72
2022/07/02 02:31:21;;;;;;;2.73;2.50;;;;;;;9.43;100.00;97106.25;5033829;28;20449;-72
2022/07/02 02:33:48;;;;;;;3.40;2.30;;;;;;;9.34;100.00;97109.91;5034032;28;20457;-72
2022/07/02 02:36:16;;;;;;;2.23;2.13;;;;;;;9.22;100.00;97120.22;5066968;28;21015;-72
2022/07/02 02:38:46;;;;;;;2.83;2.50;;;;;;;9.08;100.00;97122.88;5050691;28;20807;-72
2022/07/02 02:41:13;;;;;;;2.37;2.23;;;;;;;9.15;100.00;97104.78;5033506;28;20448;-72
2022/07/02 02:43:40;;;;;;;2.77;2.57;;;;;;;9.25;100.00;97123.03;5033960;28;20551;-72
2022/07/02 02:46:07;;;;;;;2.80;2.60;;;;;;;9.03;100.00;97086.84;5033907;28;20457;-72
2022/07/02 02:48:35;;;;;;;2.90;2.60;;;;;;;9.07;100.00;97103.63;5067079;28;20441;-72
2022/07/02 02:51:04;;;;;;;2.93;2.73;;;;;;;9.12;100.00;97119.34;5033909;28;20521;-72
2022/07/02 02:53:31;;;;;;;3.17;2.83;;;;;;;8.86;100.00;97094.59;5051665;28;21205;-72
2022/07/02 02:55:59;;;;;;;3.40;3.10;;;;;;;9.02;100.00;97110.88;5033518;28;20500;-72
2022/07/02 02:58:27;;;;;;;4.97;3.20;;;;;;;9.14;100.00;97130.38;5033822;28;20434;-72
2022/07/02 03:00:54;;;;;;;3.87;3.03;;;;;;;9.11;100.00;97140.75;5051543;28;20834;-72
2022/07/02 03:03:21;;;;;;;5.17;2.60;;;;;;;8.88;100.00;97132.00;5033407;28;20564;-73
2022/07/02 03:05:48;;;;;;;3.20;2.90;;;;;;;8.61;100.00;97095.88;5051464;28;20790;-73
2022/07/02 03:08:15;;;;;;;2.97;2.77;;;;;;;8.48;100.00;97086.13;5050342;28;20468;-73
2022/07/02 03:10:42;;;;;;;2.90;2.60;;;;;;;8.86;100.00;97128.88;5050064;28;20484;-73
2022/07/02 03:13:09;;;;;;;3.30;2.80;;;;;;;8.83;100.00;97138.16;5017168;28;20988;-73
2022/07/02 03:15:36;;;;;;;3.40;3.10;;;;;;;8.45;100.00;97094.63;5033178;28;20859;-73
2022/07/02 03:18:03;;;;;;;3.87;3.50;;;;;;;8.49;100.00;97127.22;5050409;28;20445;-72
2022/07/02 03:20:31;;;;;;;3.10;2.90;;;;;;;8.67;100.00;97131.59;5049974;28;20492;-72
2022/07/02 03:22:58;;;;;;;2.87;2.60;;;;;;;8.44;100.00;97111.50;5033303;28;20896;-73
2022/07/02 03:25:25;;;;;;;3.00;2.70;;;;;;;8.58;100.00;97143.91;5066492;28;20501;-72
2022/07/02 03:27:56;;;;;;;5.50;2.93;;;;;;;8.28;100.00;97122.31;5048327;28;20442;-73
2022/07/02 03:30:23;;;;;;;2.63;2.43;;;;;;;8.19;100.00;97110.88;5033098;28;20495;-73
2022/07/02 03:32:50;;;;;;;3.87;2.40;;;;;;;8.54;100.00;97145.56;5033169;28;20438;-73
2022/07/02 03:35:16;;;;;;;6.00;2.47;;;;;;;8.46;100.00;97136.50;5033171;28;20484;-72
2022/07/02 03:37:43;;;;;;;4.77;3.20;;;;;;;8.27;100.00;97131.25;5050872;28;20503;-72
2022/07/02 03:40:10;;;;;;;3.03;2.50;;;;;;;8.05;100.00;97111.91;5033053;28;20544;-73
2022/07/02 03:42:37;;;;;;;3.93;3.63;;;;;;;8.29;100.00;97131.78;5066319;28;20435;-73
2022/07/02 03:45:04;;;;;;;3.73;2.63;;;;;;;7.58;100.00;97043.47;5028295;28;20521;-73
2022/07/02 03:47:31;;;;;;;3.00;2.63;;;;;;;8.44;100.00;97143.13;5032860;28;20460;-73
2022/07/02 03:49:58;;;;;;;2.87;2.67;;;;;;;8.44;100.00;97154.47;5038367;28;20473;-73
2022/07/02 03:52:24;;;;;;;3.10;2.30;;;;;;;8.46;100.00;97139.13;5033206;28;20465;-73
2022/07/02 03:54:51;;;;;;;2.70;2.50;;;;;;;8.41;100.00;97167.41;5033162;28;20444;-73
2022/07/02 03:57:18;;;;;;;3.00;2.70;;;;;;;8.63;100.00;97157.00;5033150;28;20861;-73
2022/07/02 03:59:44;;;;;;;3.93;3.03;;;;;;;8.49;100.00;97128.00;5032923;28;20465;-73
2022/07/02 04:02:11;;;;;;;2.70;2.50;;;;;;;8.48;100.00;97150.16;5066101;28;20476;-73
2022/07/02 04:04:38;;;;;;;2.87;2.67;;;;;;;8.48;100.00;97142.25;5033150;28;20464;-73
2022/07/02 04:07:05;;;;;;;3.63;2.67;;;;;;;8.73;100.00;97148.91;5032736;28;20895;-73
2022/07/02 04:09:32;;;;;;;3.07;2.87;;;;;;;8.74;100.00;97163.63;5032779;28;20438;-73
2022/07/02 04:11:58;;;;;;;3.33;3.03;;;;;;;8.54;100.00;97162.16;5032718;28;20932;-73
2022/07/02 04:14:25;;;;;;;3.17;2.87;;;;;;;8.73;100.00;97129.66;5032813;28;20472;-73
2022/07/02 04:16:52;;;;;;;3.23;2.93;;;;;;;8.65;100.00;97139.03;5050599;28;20979;-73
2022/07/02 04:19:18;;;;;;;4.43;3.90;;;;;;;8.25;100.00;97130.78;5016392;28;20444;-73
2022/07/02 04:21:45;;;;;;;4.80;3.63;;;;;;;8.35;100.00;97143.03;5011995;28;20458;-73
2022/07/02 04:24:12;;;;;;;4.57;3.20;;;;;;;8.55;100.00;97136.59;5049139;28;20490;-73
2022/07/02 04:26:40;;;;;;;4.50;3.93;;;;;;;8.59;100.00;97140.22;5029439;28;20474;-73
2022/07/02 04:29:06;;;;;;;4.87;4.30;;;;;;;8.83;100.00;97164.53;5032786;28;20441;-73
2022/07/02 04:31:33;;;;;;;5.23;4.40;;;;;;;8.91;100.00;97164.91;5032609;28;20457;-73
2022/07/02 04:34:00;;;;;;;4.70;3.73;;;;;;;8.87;100.00;97109.34;5016261;28;20520;-73
2022/07/02 04:36:27;;;;;;;5.43;4.90;;;;;;;9.22;100.00;97151.88;5050278;28;20456;-73
2022/07/02 04:38:53;;;;;;;8.20;4.80;;;;;;;9.22;100.00;97167.72;5032676;28;20433;-73
2022/07/02 04:41:20;;;;;;;6.97;5.43;;;;;;;8.95;100.00;97135.03;5052552;28;20468;-73
2022/07/02 04:43:46;;;;;;;9.23;5.60;;;;;;;8.98;100.00;97154.75;5053952;28;20493;-73
2022/07/02 04:46:13;;;;;;;5.57;4.57;;;;;;;9.23;100.00;97170.06;5031599;28;20454;-73
2022/07/02 04:48:40;;;;;;;15.50;6.37;;;;;;;9.42;100.00;97156.72;5036055;28;20528;-73
2022/07/02 04:51:07;;;;;;;11.10;5.97;;;;;;;9.36;100.00;97166.59;5032417;28;20964;-73
2022/07/02 04:53:33;;;;;;;5.93;4.90;;;;;;;9.27;100.00;97176.28;5045076;28;20417;-73
2022/07/02 04:56:00;;;;;;;11.77;7.00;;;;;;;9.27;100.00;97172.88;5035413;28;20569;-73
2022/07/02 04:58:26;;;;;;;13.20;6.83;;;;;;;9.30;100.00;97186.25;5053772;28;20438;-73
2022/07/02 05:00:53;;;;;;;7.03;5.80;;;;;;;9.16;100.00;97153.84;5019330;28;20525;-73
2022/07/02 05:03:20;;;;;;;8.00;6.30;;;;;;;9.34;100.00;97179.28;5035746;28;21053;-73
2022/07/02 05:05:47;;;;;;;9.30;6.67;;;;;;;9.22;100.00;97162.44;5035789;28;20441;-73
2022/07/02 05:08:14;;;;;;;7.97;7.17;;;;;;;9.80;100.00;97193.34;5035836;28;20437;-73
2022/07/02 05:10:41;;;;;;;10.60;7.27;;;;;;;9.63;100.00;97186.88;5035576;28;20508;-73
2022/07/02 05:13:08;;;;;;;7.17;6.47;;;;;;;9.99;100.00;97194.72;5035539;28;20899;-73
2022/07/02 05:15:41;;;;;;;9.83;7.77;;;;;;;9.89;100.00;97163.28;5052038;28;20437;-73
2022/07/02 05:18:08;;;;;;;14.77;7.20;;;;;;;9.96;100.00;97184.00;5035410;28;20461;-73
2022/07/02 05:20:34;;;;;;;11.30;7.83;;;;;;;10.04;100.00;97209.72;5052101;28;21012;-73
2022/07/02 05:23:01;;;;;;;8.80;7.90;;;;;;;9.97;100.00;97204.81;5035391;28;20476;-73
2022/07/02 05:25:28;;;;;;;14.43;8.03;;;;;;;10.24;100.00;97214.53;5030360;28;21230;-73
2022/07/02 05:27:55;;;;;;;9.30;7.80;;;;;;;10.29;100.00;97209.13;5045390;28;20465;-73
2022/07/02 05:30:21;;;;;;;10.33;7.60;;;;;;;10.16;100.00;97202.03;5032919;28;20979;-73
2022/07/02 05:32:48;;;;;;;9.33;8.20;;;;;;;10.50;100.00;97206.75;5053117;28;20469;-72
2022/07/02 05:35:15;;;;;;;7.70;6.90;;;;;;;10.51;100.00;97208.28;5035023;28;20465;-72
2022/07/02 05:37:41;;;;;;;11.83;7.60;;;;;;;10.55;100.00;97217.22;5018460;28;20564;-72
2022/07/02 05:40:09;;;;;;;8.40;7.60;;;;;;;10.62;100.00;97208.81;5031803;28;20462;-72
2022/07/02 05:42:36;;;;;;;8.77;7.97;;;;;;;10.76;100.00;97203.44;5028728;28;20452;-72
2022/07/02 05:45:03;;;;;;;8.93;8.13;;;;;;;11.01;100.00;97220.50;5048161;28;20541;-72
2022/07/02 05:47:29;;;;;;;13.17;7.93;;;;;;;10.62;100.00;97214.91;5034892;28;20481;-72
2022/07/02 05:49:56;;;;;;;10.87;7.70;;;;;;;10.47;100.00;97223.22;5035031;28;20464;-72
2022/07/02 05:52:23;;;;;;;15.23;8.87;;;;;;;10.34;100.00;97222.22;5051960;28;20425;-72
2022/07/02 05:54:50;;;;;;;10.67;8.13;;;;;;;10.36;100.00;97182.25;5052744;28;20433;-72
2022/07/02 05:57:16;;;;;;;16.17;8.70;;;;;;;10.33;100.00;97204.78;5018128;28;20458;-72
2022/07/02 05:59:43;;;;;;;47.43;10.40;;;;;;;10.27;100.00;97213.91;5034769;28;20476;-71
2022/07/02 06:02:10;;;;;;;23.93;9.30;;;;;;;10.48;100.00;97214.19;5034655;28;20441;-72
2022/07/02 06:04:37;;;;;;;10.30;9.30;;;;;;;10.60;100.00;97221.56;5034326;28;21044;-72
2022/07/02 06:09:49;;;;;;;8.90;8.00;;;;;;;10.95;100.00;97203.97;5051076;28;20437;-72
2022/07/02 06:12:16;;;;;;;8.83;8.03;;;;;;;11.25;100.00;97197.84;5034333;28;20441;-71
2022/07/02 06:14:43;;;;;;;7.50;6.80;;;;;;;11.51;100.00;97234.19;5034758;28;20827;-71
2022/07/02 06:17:10;;;;;;;8.37;7.47;;;;;;;11.57;100.00;97222.34;5050740;28;20489;-71
2022/07/02 06:19:38;;;;;;;8.33;7.63;;;;;;;11.67;100.00;97216.75;5052213;28;20932;-72
2022/07/02 06:22:05;;;;;;;7.40;6.80;;;;;;;12.17;100.00;97229.56;5034053;28;20804;-72
2022/07/02 06:24:32;;;;;;;8.30;7.60;;;;;;;12.20;100.00;97233.44;5052222;28;20874;-71
2022/07/02 06:26:59;;;;;;;7.87;7.03;;;;;;;11.67;100.00;97227.34;5033677;28;20473;-72
2022/07/02 06:29:27;;;;;;;8.10;7.30;;;;;;;11.90;100.00;97235.19;5034075;28;20972;-72
2022/07/02 06:31:53;;;;;;;9.20;8.40;;;;;;;12.19;100.00;97232.66;5050516;28;20520;-72
2022/07/02 06:34:20;;;;;;;9.73;8.83;;;;;;;12.40;100.00;97230.13;5051927;28;20425;-72
2022/07/02 06:36:47;;;;;;;8.33;7.63;;;;;;;12.07;100.00;97203.34;5033835;28;20984;-71
2022/07/02 06:39:14;;;;;;;9.73;8.77;;;;;;;12.49;100.00;97227.47;5033936;28;20441;-71
2022/07/02 06:44:26;;;;;;;9.10;8.30;;;;;;;12.52;100.00;97224.19;5036630;28;20977;-71
2022/07/02 06:46:52;;;;;;;9.13;6.90;;;;;;;13.16;100.00;97224.09;5017372;28;20552;-71
2022/07/02 06:49:19;;;;;;;9.13;8.33;;;;;;;13.18;100.00;97224.56;5033731;28;20539;-71
2022/07/02 06:51:46;;;;;;;7.70;7.00;;;;;;;13.01;100.00;97186.38;5017628;28;20442;-71
2022/07/02 06:54:13;;;;;;;8.70;7.50;;;;;;;13.56;100.00;97205.91;5033985;28;20468;-71
2022/07/02 06:56:39;;;;;;;8.73;7.83;;;;;;;13.79;100.00;97217.78;5037152;28;20470;-72
2022/07/02 06:59:06;;;;;;;8.17;7.50;;;;;;;14.04;100.00;97217.91;5045110;28;20453;-72
2022/07/02 07:01:33;;;;;;;8.97;8.17;;;;;;;13.60;100.00;97223.53;5065611;28;20811;-72
2022/07/02 07:04:00;;;;;;;9.60;8.60;;;;;;;13.68;100.00;97202.56;5063654;28;20437;-72
2022/07/02 07:06:33;;;;;;;8.83;7.93;;;;;;;13.92;100.00;97201.91;5045828;28;20485;-71
2022/07/02 07:09:00;;;;;;;8.43;7.73;;;;;;;14.58;100.00;97223.22;5044642;28;20437;-72
2022/07/02 07:11:27;;;;;;;9.17;8.17;;;;;;;15.09;100.00;97227.16;5044819;28;20479;-72
2022/07/02 07:13:53;;;;;;;8.60;7.87;;;;;;;15.85;100.00;97225.63;5062716;28;20932;-72
2022/07/02 07:16:20;;;;;;;7.97;7.27;;;;;;;16.02;100.00;97203.22;5043334;28;20825;-72
2022/07/02 07:18:56;;;;;;;7.20;6.50;;;;;;;16.18;100.00;97214.75;5057856;28;20500;-72
2022/07/02 07:21:23;;;;;;;7.70;7.00;;;;;;;16.45;100.00;97227.28;5034136;28;20428;-72
2022/07/02 07:23:49;;;;;;;7.63;6.87;;;;;;;16.84;100.00;97230.22;5051132;28;20429;-72
2022/07/02 07:26:16;;;;;;;7.67;6.97;;;;;;;16.85;100.00;97242.44;5033191;28;20457;-72
2022/07/02 07:28:43;;;;;;;6.40;5.90;;;;;;;16.84;100.00;97206.16;5033154;28;20477;-72
2022/07/02 07:31:10;;;;;;;6.90;6.37;;;;;;;16.96;100.00;97232.00;5033140;28;20495;-72
2022/07/02 07:33:37;;;;;;;6.40;5.90;;;;;;;17.63;100.00;97249.63;5033113;28;20445;-72
2022/07/02 07:36:04;;;;;;;7.27;6.60;;;;;;;17.69;100.00;97245.56;5033008;28;20984;-72
2022/07/02 07:38:31;;;;;;;6.53;6.03;;;;;;;17.58;100.00;97241.84;5037212;28;20442;-72
2022/07/02 07:40:59;;;;;;;5.93;5.50;;;;;;;17.69;100.00;97237.53;5033149;28;20468;-72
2022/07/02 07:43:25;;;;;;;6.87;6.27;;;;;;;17.26;100.00;97246.47;5032943;28;20449;-72
2022/07/02 07:45:54;;;;;;;6.80;6.20;;;;;;;17.03;100.00;97246.31;5050409;28;20468;-72
2022/07/02 07:48:21;;;;;;;6.07;5.50;;;;;;;17.55;100.00;97234.53;5032749;28;20520;-72
2022/07/02 07:50:48;;;;;;;8.57;6.47;;;;;;;18.18;100.00;97257.66;5066569;28;20460;-72
2022/07/02 07:53:14;;;;;;;7.17;6.57;;;;;;;17.87;100.00;97218.41;5033057;28;20476;-72
2022/07/02 07:55:41;;;;;;;6.10;5.60;;;;;;;18.22;100.00;97232.50;5032687;28;20445;-72
2022/07/02 07:58:08;;;;;;;4.23;3.93;;;;;;;18.34;100.00;97250.31;5032904;28;20495;-72
2022/07/02 08:00:35;;;;;;;3.97;3.73;;;;;;;18.64;100.00;97239.78;5032585;28;20442;-71
2022/07/02 08:03:04;;;;;;;4.40;4.00;;;;;;;19.23;100.00;97259.94;5033181;28;20460;-72
2022/07/02 08:05:31;;;;;;;4.80;4.40;;;;;;;19.27;100.00;97238.53;5049273;28;20553;-71
2022/07/02 08:07:58;;;;;;;3.97;3.67;;;;;;;19.09;100.00;97243.59;5050839;28;20483;-71
2022/07/02 08:10:25;;;;;;;3.03;2.70;;;;;;;19.06;100.00;97225.56;5050682;28;20437;-72
2022/07/02 08:12:52;;;;;;;2.57;2.30;;;;;;;19.39;100.00;97225.69;5050663;28;20430;-72
2022/07/02 08:15:18;;;;;;;4.30;3.83;;;;;;;19.86;100.00;97259.31;5034966;28;20625;-72
2022/07/02 08:17:45;;;;;;;3.00;2.70;;;;;;;19.94;100.00;97250.25;5052630;28;20476;-72
2022/07/02 08:20:12;;;;;;;2.47;2.27;;;;;;;19.23;100.00;97238.50;5036513;28;20441;-72
2022/07/02 08:22:39;;;;;;;2.73;2.37;;;;;;;19.57;100.00;97225.19;5054606;28;20425;-72
2022/07/02 08:25:07;;;;;;;2.87;2.57;;;;;;;19.47;100.00;97230.00;5036596;28;20456;-73
2022/07/02 08:27:34;;;;;;;2.20;2.10;;;;;;;19.51;100.00;97253.47;5036047;28;20468;-72
2022/07/02 08:30:00;;;;;;;3.30;2.37;;;;;;;20.01;100.00;97250.31;5036478;28;21254;-72
2022/07/02 08:32:27;;;;;;;4.30;2.47;;;;;;;20.12;100.00;97252.34;5036309;28;20460;-71
2022/07/02 08:34:56;;;;;;;3.40;3.20;;;;;;;20.41;100.00;97229.28;5035292;28;20825;-71
2022/07/02 08:37:22;;;;;;;2.27;2.17;;;;;;;20.56;98.44;97247.88;5018623;28;20973;-71
2022/07/02 08:39:49;;;;;;;2.60;2.40;;;;;;;20.46;96.56;97229.75;5053995;28;20461;-71
2022/07/02 08:42:22;;;;;;;1.80;1.70;;;;;;;20.51;92.95;97252.84;5036009;28;20874;-71
2022/07/02 08:44:52;;;;;;;3.00;2.80;;;;;;;20.88;94.20;97247.44;5032496;28;20496;-71
2022/07/02 08:47:20;;;;;;;2.83;2.50;;;;;;;20.02;97.02;97219.63;5029321;28;20465;-71
2022/07/02 08:49:47;;;;;;;2.07;1.97;;;;;;;21.30;93.82;97246.25;5040533;28;20451;-71
2022/07/02 08:52:17;;;;;;;1.87;1.77;;;;;;;21.21;83.83;97246.53;5035748;28;20453;-71
2022/07/02 08:54:45;;;;;;;2.07;1.80;;;;;;;20.24;80.69;97222.56;5048384;28;20437;-71
2022/07/02 08:57:47;;;;;;;2.80;1.80;;;;;;;20.87;81.99;97249.34;5035940;28;20461;-72
2022/07/02 09:00:15;;;;;;;2.00;1.87;;;;;;;21.17;78.21;97249.22;5052593;28;20502;-71
2022/07/02 09:02:43;;;;;;;3.57;1.83;;;;;;;21.31;73.83;97239.72;5052337;28;20491;-71
2022/07/02 09:05:11;;;;;;;2.93;1.90;;;;;;;21.43;73.07;97239.44;5035764;28;20472;-71
2022/07/02 09:07:40;;;;;;;2.83;2.10;;;;;;;21.33;71.70;97250.91;5035928;28;20963;-71
2022/07/02 09:10:09;;;;;;;2.10;1.57;;;;;;;21.37;69.03;97214.81;5035573;28;20442;-71
2022/07/02 09:12:37;;;;;;;1.63;1.43;;;;;;;21.14;66.73;97231.13;5035601;28;20826;-71
2022/07/02 09:15:04;;;;;;;1.67;1.40;;;;;;;20.90;69.86;97210.19;5035446;28;20462;-71
2022/07/02 09:17:31;;;;;;;1.57;1.43;;;;;;;21.01;69.45;97227.19;5035347;28;20516;-71
2022/07/02 09:19:59;;;;;;;2.03;1.83;;;;;;;21.57;67.58;97212.59;5035594;28;20426;-72
2022/07/02 09:22:35;;;;;;;1.77;1.57;;;;;;;21.99;66.98;97230.13;5035680;28;20425;-71
2022/07/02 09:25:08;;;;;;;2.10;1.90;;;;;;;22.10;64.93;97230.97;5068356;28;20539;-71
2022/07/02 09:27:34;;;;;;;2.63;1.57;;;;;;;22.19;63.59;97230.63;5067400;28;20461;-71
2022/07/02 09:30:01;;;;;;;2.00;1.80;;;;;;;22.59;63.78;97216.09;5035222;28;20429;-71
2022/07/02 09:32:37;;;;;;;1.60;1.50;;;;;;;22.95;63.40;97228.47;5035259;28;20446;-71
2022/07/02 09:35:04;;;;;;;1.73;1.63;;;;;;;22.60;64.13;97223.03;5051812;28;20460;-71
2022/07/02 09:37:31;;;;;;;12.37;2.10;;;;;;;22.64;67.70;97210.31;5035093;28;20457;-71
2022/07/02 09:40:00;;;;;;;1.87;1.77;;;;;;;23.04;66.50;97221.94;5034772;28;20432;-72
2022/07/02 09:42:33;;;;;;;2.37;2.17;;;;;;;23.27;65.07;97217.69;5052949;28;20487;-71
2022/07/02 09:45:05;;;;;;;2.27;2.00;;;;;;;23.45;64.34;97220.34;5052633;28;20964;-72
2022/07/02 09:47:37;;;;;;;3.13;2.60;;;;;;;22.67;64.54;97204.16;5034817;28;20453;-71
2022/07/02 09:50:07;;;;;;;2.20;2.10;;;;;;;22.77;65.49;97211.47;5035133;28;20516;-71
2022/07/02 09:52:35;;;;;;;2.13;1.93;;;;;;;22.64;64.48;97215.72;5034807;28;20839;-71
2022/07/02 09:55:03;;;;;;;2.00;1.77;;;;;;;22.31;63.83;97198.72;5052693;28;20449;-71
2022/07/02 09:57:30;;;;;;;3.70;1.50;;;;;;;22.81;62.81;97187.97;5035276;28;20855;-71
2022/07/02 10:00:07;;;;;;;2.77;1.80;;;;;;;22.77;58.66;97186.44;5034480;28;20437;-71
2022/07/02 10:02:37;;;;;;;1.50;1.40;;;;;;;22.93;59.94;97197.63;5035242;28;20421;-71
2022/07/02 10:05:06;;;;;;;2.70;1.50;;;;;;;22.70;58.62;97214.16;5051379;28;20596;-71
2022/07/02 10:07:33;;;;;;;1.67;1.57;;;;;;;23.00;59.13;97208.44;5052727;28;20453;-72
2022/07/02 10:10:04;;;;;;;1.83;1.37;;;;;;;22.91;58.98;97184.53;5052616;28;20440;-72
2022/07/02 10:12:31;;;;;;;1.57;1.20;;;;;;;23.13;57.42;97184.53;5052637;28;21053;-71
2022/07/02 10:15:00;;;;;;;5.37;1.40;;;;;;;22.99;57.77;97172.59;5052534;28;20457;-71
2022/07/02 10:17:28;;;;;;;1.73;1.63;;;;;;;22.62;57.06;97199.16;5054612;28;20968;-71
2022/07/02 10:19:55;;;;;;;2.40;1.37;;;;;;;22.42;57.18;97196.78;5034276;28;20461;-71
2022/07/02 10:22:23;;;;;;;5.30;2.07;;;;;;;22.16;56.53;97169.41;5034361;28;20909;-71
2022/07/02 10:24:51;;;;;;;2.50;2.03;;;;;;;22.02;55.75;97168.19;5034824;28;20434;-70
2022/07/02 10:27:19;;;;;;;1.77;1.40;;;;;;;21.78;56.24;97174.25;5035026;28;20465;-72
2022/07/02 10:29:46;;;;;;;1.40;1.30;;;;;;;22.21;58.08;97153.66;5035426;28;20475;-71
2022/07/02 10:32:23;;;;;;;2.10;1.40;;;;;;;22.47;56.57;97179.50;5040298;28;20445;-71
2022/07/02 10:34:56;;;;;;;1.93;1.70;;;;;;;22.55;56.44;97172.94;5059830;28;20429;-71
2022/07/02 10:37:23;;;;;;;1.40;1.30;;;;;;;22.83;56.87;97152.56;5040399;28;20460;-72
2022/07/02 10:40:01;;;;;;;1.50;1.40;;;;;;;23.16;55.10;97130.56;5023951;28;20430;-72
2022/07/02 10:42:59;;;;;;;5.57;1.53;;;;;;;22.49;54.35;97161.00;5038906;28;20792;-71
2022/07/02 10:45:26;;;;;;;1.30;1.20;;;;;;;22.85;54.30;97166.44;5028974;28;21022;-72
2022/07/02 10:48:02;;;;;;;2.60;1.67;;;;;;;22.65;56.04;97158.69;5023089;28;20460;-71
2022/07/02 10:50:35;;;;;;;1.50;1.30;;;;;;;23.36;55.67;97157.09;5023569;28;20425;-72
2022/07/02 10:53:18;;;;;;;1.83;1.40;;;;;;;23.43;54.96;97155.19;5036231;28;20487;-71
2022/07/02 10:56:07;;;;;;;9.20;1.47;;;;;;;22.77;56.58;97149.47;5048213;28;20972;-71
2022/07/02 10:58:37;;;;;;;1.67;1.40;;;;;;;22.33;56.87;97136.34;5033812;28;20444;-71
2022/07/02 11:01:12;;;;;;;2.43;1.50;;;;;;;22.80;56.57;97147.91;5033829;28;20566;-71
2022/07/02 11:04:06;;;;;;;2.53;1.50;;;;;;;23.10;55.29;97150.97;5033858;28;20480;-73
2022/07/02 11:06:33;;;;;;;1.60;1.40;;;;;;;23.42;55.21;97132.03;5032351;28;20556;-71
2022/07/02 11:09:02;;;;;;;1.27;1.17;;;;;;;23.63;53.74;97146.66;5033709;28;20436;-71
2022/07/02 11:11:29;;;;;;;3.17;1.50;;;;;;;23.92;52.54;97158.13;5033978;28;20921;-71
2022/07/02 11:14:09;;;;;;;2.43;1.83;;;;;;;24.89;53.24;97159.81;5051869;28;20487;-72
2022/07/02 11:16:53;;;;;;;1.53;1.40;;;;;;;24.86;50.86;97125.44;5033282;28;20476;-71
2022/07/02 11:19:22;;;;;;;1.70;1.60;;;;;;;24.63;51.53;97147.66;5033477;28;20433;-71
2022/07/02 11:21:50;;;;;;;3.40;1.20;;;;;;;24.98;49.98;97127.66;5033591;28;20519;-71
2022/07/02 11:24:26;;;;;;;1.77;1.23;;;;;;;24.86;49.63;97130.09;5017914;28;20437;-71
2022/07/02 11:26:53;;;;;;;1.10;1.00;;;;;;;24.74;48.75;97142.16;5032996;28;20477;-71
2022/07/02 11:29:20;;;;;;;1.80;1.40;;;;;;;24.66;49.00;97137.97;5017177;28;20470;-71
2022/07/02 11:31:51;;;;;;;2.70;1.20;;;;;;;25.01;49.26;97131.53;5051265;28;20430;-71
2022/07/02 11:34:23;;;;;;;3.97;1.70;;;;;;;25.01;49.46;97118.00;5033642;28;20544;-71
2022/07/02 11:36:51;;;;;;;1.47;1.33;;;;;;;24.73;48.99;97133.28;5033236;28;20972;-72
2022/07/02 11:39:20;;;;;;;1.40;1.30;;;;;;;24.90;48.55;97120.75;5033275;28;20430;-72
2022/07/02 11:41:47;;;;;;;2.17;1.20;;;;;;;25.25;48.49;97118.91;5033478;28;20432;-72